Time,TemperatureF,DewpointF,PressureIn,WindDirection,WindDirectionDegrees,WindSpeedMPH,WindSpeedGustMPH,Humidity,HourlyPrecipIn,Conditions,Clouds,dailyrainin,SoftwareType,DateUTC
2013-01-03 00:22:00,16.7,13.0,30.17,NE,50,0.0,0.0,86,0.00,,,0.00,weatherlink.com 1.10,2013-01-03 05:22:00,
2013-01-03 00:37:00,16.0,13.0,30.17,NE,50,0.0,0.0,88,0.00,,,0.00,weatherlink.com 1.10,2013-01-03 05:37:00,
2013-01-03 00:52:00,15.7,13.0,30.17,NNE,26,0.0,0.0,88,0.00,,,0.00,weatherlink.com 1.10,2013-01-03 05:52:00,
2013-01-03 01:07:00,17.1,13.0,30.18,NW,309,0.0,3.0,83,0.00,,,0.00,weatherlink.com 1.10,2013-01-03 06:07:00,
2013-01-03 01:22:00,16.3,12.0,30.18,NW,309,0.0,1.0,82,0.00,,,0.00,weatherlink.com 1.10,2013-01-03 06:22:00,
2013-01-03 01:37:00,15.4,12.0,30.17,NW,309,0.0,0.0,85,0.00,,,0.00,weatherlink.com 1.10,2013-01-03 06:37:00,
2013-01-03 01:52:00,15.4,11.0,30.18,NW,305,0.0,0.0,83,0.00,,,0.00,weatherlink.com 1.10,2013-01-03 06:52:00,
2013-01-03 02:08:00,15.2,11.0,30.18,NW,315,0.0,0.0,82,0.00,,,0.00,weatherlink.com 1.10,2013-01-03 07:08:00,
2013-01-03 02:23:00,15.4,10.0,30.18,NW,311,2.0,3.0,79,0.00,,,0.00,weatherlink.com 1.10,2013-01-03 07:23:00,
2013-01-03 02:38:00,16.2,8.0,30.17,WNW,302,1.0,6.0,71,0.00,,,0.00,weatherlink.com 1.10,2013-01-03 07:38:00,
2013-01-03 02:53:00,16.2,8.0,30.17,WNW,297,2.0,7.0,69,0.00,,,0.00,weatherlink.com 1.10,2013-01-03 07:53:00,
2013-01-03 03:08:00,16.0,7.0,30.17,WNW,297,1.0,7.0,67,0.00,,,0.00,weatherlink.com 1.10,2013-01-03 08:08:00,
2013-01-03 03:23:00,15.2,6.0,30.17,WNW,300,1.0,4.0,68,0.00,,,0.00,weatherlink.com 1.10,2013-01-03 08:23:00,
2013-01-03 03:38:00,14.7,6.0,30.17,WNW,297,3.0,5.0,68,0.00,,,0.00,weatherlink.com 1.10,2013-01-03 08:38:00,
2013-01-03 03:53:00,14.4,5.0,30.17,WNW,297,1.0,5.0,67,0.00,,,0.00,weatherlink.com 1.10,2013-01-03 08:53:00,
2013-01-03 04:08:00,14.1,5.0,30.17,WNW,295,2.0,7.0,66,0.00,,,0.00,weatherlink.com 1.10,2013-01-03 09:08:00,
2013-01-03 04:23:00,13.5,5.0,30.17,West,267,1.0,3.0,68,0.00,,,0.00,weatherlink.com 1.10,2013-01-03 09:23:00,
2013-01-03 04:38:00,12.6,4.0,30.17,WNW,295,1.0,2.0,68,0.00,,,0.00,weatherlink.com 1.10,2013-01-03 09:38:00,
2013-01-03 04:53:00,12.3,3.0,30.17,NW,325,4.0,6.0,67,0.00,,,0.00,weatherlink.com 1.10,2013-01-03 09:53:00,
2013-01-03 05:08:00,11.8,2.0,30.17,WNW,295,2.0,6.0,66,0.00,,,0.00,weatherlink.com 1.10,2013-01-03 10:08:00,
2013-01-03 05:23:00,11.3,2.0,30.17,WNW,297,3.0,9.0,66,0.00,,,0.00,weatherlink.com 1.10,2013-01-03 10:23:00,
2013-01-03 05:38:00,10.8,1.0,30.17,West,277,2.0,10.0,66,0.00,,,0.00,weatherlink.com 1.10,2013-01-03 10:38:00,
2013-01-03 05:53:00,10.3,1.0,30.17,NW,316,2.0,4.0,66,0.00,,,0.00,weatherlink.com 1.10,2013-01-03 10:53:00,
2013-01-03 06:08:00,9.8,1.0,30.18,WNW,297,1.0,3.0,66,0.00,,,0.00,weatherlink.com 1.10,2013-01-03 11:08:00,
2013-01-03 06:24:00,9.3,1.0,30.18,NW,305,1.0,4.0,68,0.00,,,0.00,weatherlink.com 1.10,2013-01-03 11:24:00,
2013-01-03 06:38:00,8.9,1.0,30.18,WNW,294,1.0,5.0,69,0.00,,,0.00,weatherlink.com 1.10,2013-01-03 11:38:00,
2013-01-03 06:53:00,8.9,0.0,30.18,NW,319,1.0,5.0,68,0.00,,,0.00,weatherlink.com 1.10,2013-01-03 11:53:00,
2013-01-03 07:08:00,8.0,1.0,30.19,ESE,113,0.0,0.0,72,0.00,,,0.00,weatherlink.com 1.10,2013-01-03 12:08:00,
2013-01-03 07:23:00,7.0,0.0,30.19,ESE,113,0.0,0.0,72,0.00,,,0.00,weatherlink.com 1.10,2013-01-03 12:23:00,
2013-01-03 07:38:00,5.8,0.0,30.19,ESE,113,0.0,0.0,76,0.00,,,0.00,weatherlink.com 1.10,2013-01-03 12:38:00,
2013-01-03 07:53:00,5.8,0.0,30.19,ESE,113,0.0,0.0,78,0.00,,,0.00,weatherlink.com 1.10,2013-01-03 12:53:00,
2013-01-03 08:09:00,5.6,1.0,30.19,ESE,113,0.0,0.0,80,0.00,,,0.00,weatherlink.com 1.10,2013-01-03 13:09:00,
2013-01-03 08:24:00,5.8,1.0,30.18,ESE,123,0.0,1.0,80,0.00,,,0.00,weatherlink.com 1.10,2013-01-03 13:24:00,
2013-01-03 08:39:00,6.9,2.0,30.18,ESE,123,0.0,0.0,79,0.00,,,0.00,weatherlink.com 1.10,2013-01-03 13:39:00,
2013-01-03 08:54:00,8.0,1.0,30.18,NW,318,1.0,3.0,74,0.00,,,0.00,weatherlink.com 1.10,2013-01-03 13:54:00,
2013-01-03 09:09:00,9.1,2.0,30.18,NW,322,0.0,2.0,71,0.00,,,0.00,weatherlink.com 1.10,2013-01-03 14:09:00,
2013-01-03 09:24:00,10.3,3.0,30.20,NW,325,0.0,1.0,71,0.00,,,0.00,weatherlink.com 1.10,2013-01-03 14:24:00,
2013-01-03 09:39:00,11.7,3.0,30.20,ESE,111,0.0,2.0,69,0.00,,,0.00,weatherlink.com 1.10,2013-01-03 14:39:00,
2013-01-03 09:54:00,13.2,4.0,30.19,NW,306,0.0,3.0,68,0.00,,,0.00,weatherlink.com 1.10,2013-01-03 14:54:00,
2013-01-03 10:09:00,14.8,5.0,30.18,West,262,1.0,3.0,66,0.00,,,0.00,weatherlink.com 1.10,2013-01-03 15:09:00,
2013-01-03 10:24:00,16.0,6.0,30.18,WNW,294,0.0,4.0,66,0.00,,,0.00,weatherlink.com 1.10,2013-01-03 15:24:00,
2013-01-03 10:39:00,17.1,8.0,30.17,SW,235,0.0,5.0,66,0.00,,,0.00,weatherlink.com 1.10,2013-01-03 15:39:00,
2013-01-03 10:54:00,18.2,8.0,30.16,West,281,0.0,4.0,64,0.00,,,0.00,weatherlink.com 1.10,2013-01-03 15:54:00,
2013-01-03 11:09:00,19.2,9.0,30.16,WNW,290,2.0,4.0,64,0.00,,,0.00,weatherlink.com 1.10,2013-01-03 16:09:00,
2013-01-03 11:24:00,20.1,9.0,30.15,West,278,1.0,6.0,63,0.00,,,0.00,weatherlink.com 1.10,2013-01-03 16:24:00,
2013-01-03 11:39:00,21.0,10.0,30.14,WNW,287,2.0,6.0,62,0.00,,,0.00,weatherlink.com 1.10,2013-01-03 16:39:00,
2013-01-03 11:55:00,21.8,10.0,30.13,WNW,288,1.0,4.0,61,0.00,,,0.00,weatherlink.com 1.10,2013-01-03 16:55:00,
2013-01-03 12:10:00,21.6,10.0,30.13,WNW,290,2.0,7.0,61,0.00,,,0.00,weatherlink.com 1.10,2013-01-03 17:10:00,
2013-01-03 12:25:00,22.4,11.0,30.11,NW,312,5.0,6.0,62,0.00,,,0.00,weatherlink.com 1.10,2013-01-03 17:25:00,
2013-01-03 12:40:00,22.8,11.0,30.11,NW,312,6.0,8.0,60,0.00,,,0.00,weatherlink.com 1.10,2013-01-03 17:40:00,
2013-01-03 12:55:00,23.5,11.0,30.10,ESE,105,2.0,6.0,60,0.00,,,0.00,weatherlink.com 1.10,2013-01-03 17:55:00,
2013-01-03 13:10:00,23.9,11.0,30.10,NW,310,3.0,5.0,59,0.00,,,0.00,weatherlink.com 1.10,2013-01-03 18:10:00,
2013-01-03 13:25:00,23.9,12.0,30.09,WNW,288,2.0,3.0,61,0.00,,,0.00,weatherlink.com 1.10,2013-01-03 18:25:00,
2013-01-03 13:40:00,24.1,12.0,30.09,WSW,240,0.0,6.0,59,0.00,,,0.00,weatherlink.com 1.10,2013-01-03 18:40:00,
2013-01-03 13:55:00,24.1,12.0,30.09,WNW,287,4.0,8.0,59,0.00,,,0.00,weatherlink.com 1.10,2013-01-03 18:55:00,
2013-01-03 14:10:00,24.6,13.0,30.09,NW,304,1.0,7.0,61,0.00,,,0.00,weatherlink.com 1.10,2013-01-03 19:10:00,
2013-01-03 14:56:00,25.1,13.0,30.08,WNW,284,0.0,2.0,61,0.00,,,0.00,weatherlink.com 1.10,2013-01-03 19:56:00,
2013-01-03 15:11:00,25.1,13.0,30.08,WNW,287,1.0,2.0,61,0.00,,,0.00,weatherlink.com 1.10,2013-01-03 20:11:00,
2013-01-03 15:26:00,25.0,14.0,30.07,ESE,114,0.0,2.0,63,0.00,,,0.00,weatherlink.com 1.10,2013-01-03 20:26:00,
2013-01-03 15:41:00,24.6,13.0,30.08,West,280,1.0,1.0,62,0.00,,,0.00,weatherlink.com 1.10,2013-01-03 20:41:00,
2013-01-03 15:56:00,24.0,13.0,30.07,WNW,284,0.0,1.0,63,0.00,,,0.00,weatherlink.com 1.10,2013-01-03 20:56:00,
2013-01-03 16:11:00,23.6,13.0,30.07,East,97,0.0,0.0,64,0.00,,,0.00,weatherlink.com 1.10,2013-01-03 21:11:00,
2013-01-03 16:26:00,21.7,12.0,30.07,East,97,0.0,0.0,67,0.00,,,0.00,weatherlink.com 1.10,2013-01-03 21:26:00,
2013-01-03 16:41:00,19.5,12.0,30.07,East,97,0.0,0.0,72,0.00,,,0.00,weatherlink.com 1.10,2013-01-03 21:41:00,
2013-01-03 16:56:00,17.4,11.0,30.08,East,97,0.0,0.0,77,0.00,,,0.00,weatherlink.com 1.10,2013-01-03 21:56:00,
2013-01-03 17:11:00,16.7,11.0,30.08,East,98,0.0,0.0,79,0.00,,,0.00,weatherlink.com 1.10,2013-01-03 22:11:00,
2013-01-03 17:26:00,15.8,11.0,30.08,East,98,0.0,0.0,80,0.00,,,0.00,weatherlink.com 1.10,2013-01-03 22:26:00,
2013-01-03 17:41:00,14.6,10.0,30.08,East,98,0.0,0.0,83,0.00,,,0.00,weatherlink.com 1.10,2013-01-03 22:41:00,
2013-01-03 17:56:00,14.1,10.0,30.07,East,98,0.0,0.0,85,0.00,,,0.00,weatherlink.com 1.10,2013-01-03 22:56:00,
2013-01-03 18:11:00,13.3,10.0,30.08,East,98,0.0,0.0,87,0.00,,,0.00,weatherlink.com 1.10,2013-01-03 23:11:00,
2013-01-03 18:26:00,12.9,10.0,30.08,East,98,0.0,0.0,88,0.00,,,0.00,weatherlink.com 1.10,2013-01-03 23:26:00,
2013-01-03 18:41:00,13.3,11.0,30.08,East,98,0.0,0.0,89,0.00,,,0.00,weatherlink.com 1.10,2013-01-03 23:41:00,
2013-01-03 18:56:00,12.8,10.0,30.09,East,98,0.0,0.0,88,0.00,,,0.00,weatherlink.com 1.10,2013-01-03 23:56:00,
2013-01-03 19:11:00,12.3,10.0,30.09,East,98,0.0,0.0,89,0.00,,,0.00,weatherlink.com 1.10,2013-01-04 00:11:00,
2013-01-03 19:26:00,12.5,10.0,30.08,East,97,0.0,0.0,90,0.00,,,0.00,weatherlink.com 1.10,2013-01-04 00:26:00,
2013-01-03 19:41:00,13.8,12.0,30.08,East,98,0.0,0.0,91,0.00,,,0.00,weatherlink.com 1.10,2013-01-04 00:41:00,
2013-01-03 19:56:00,14.7,12.0,30.08,East,98,0.0,0.0,90,0.00,,,0.00,weatherlink.com 1.10,2013-01-04 00:56:00,
2013-01-03 20:12:00,15.5,13.0,30.08,East,98,0.0,0.0,89,0.00,,,0.00,weatherlink.com 1.10,2013-01-04 01:12:00,
2013-01-03 20:27:00,15.9,13.0,30.07,East,98,0.0,0.0,88,0.00,,,0.00,weatherlink.com 1.10,2013-01-04 01:27:00,
2013-01-03 20:42:00,15.6,12.0,30.07,East,98,0.0,0.0,87,0.00,,,0.00,weatherlink.com 1.10,2013-01-04 01:42:00,
2013-01-03 20:57:00,14.9,12.0,30.07,East,98,0.0,0.0,87,0.00,,,0.00,weatherlink.com 1.10,2013-01-04 01:57:00,
2013-01-03 21:12:00,14.7,12.0,30.07,East,98,0.0,0.0,89,0.00,,,0.00,weatherlink.com 1.10,2013-01-04 02:12:00,
2013-01-03 21:27:00,13.8,11.0,30.06,East,100,0.0,0.0,89,0.00,,,0.00,weatherlink.com 1.10,2013-01-04 02:27:00,
2013-01-03 21:42:00,13.8,12.0,30.07,East,100,0.0,0.0,91,0.00,,,0.00,weatherlink.com 1.10,2013-01-04 02:42:00,
2013-01-03 21:57:00,14.1,12.0,30.07,East,101,0.0,0.0,90,0.00,,,0.00,weatherlink.com 1.10,2013-01-04 02:57:00,
2013-01-03 22:12:00,14.1,12.0,30.07,East,101,0.0,0.0,91,0.00,,,0.00,weatherlink.com 1.10,2013-01-04 03:12:00,
2013-01-03 22:27:00,14.3,12.0,30.08,East,98,0.0,0.0,91,0.00,,,0.00,weatherlink.com 1.10,2013-01-04 03:27:00,
2013-01-03 22:42:00,14.2,12.0,30.08,East,101,0.0,0.0,91,0.00,,,0.00,weatherlink.com 1.10,2013-01-04 03:42:00,
2013-01-03 22:57:00,14.1,12.0,30.07,East,100,0.0,0.0,92,0.00,,,0.00,weatherlink.com 1.10,2013-01-04 03:57:00,
2013-01-03 23:12:00,13.9,12.0,30.06,East,100,0.0,0.0,92,0.00,,,0.00,weatherlink.com 1.10,2013-01-04 04:12:00,
2013-01-03 23:27:00,13.3,11.0,30.06,East,101,0.0,0.0,92,0.00,,,0.00,weatherlink.com 1.10,2013-01-04 04:27:00,
2013-01-03 23:42:00,12.4,11.0,30.05,East,101,0.0,0.0,92,0.00,,,0.00,weatherlink.com 1.10,2013-01-04 04:42:00,
2013-01-03 23:58:00,12.3,11.0,30.05,East,101,0.0,0.0,93,0.00,,,0.00,weatherlink.com 1.10,2013-01-04 04:58:00,